sensor_id;sensor_type;location;lat;lon;timestamp;pressure;altitude;pressure_sealevel;temperature;humidity
48424;BME280;34232;42.502;26.014;2023-12-29T00:01:30;100759.94;;;4.61;67.74
48424;BME280;34232;42.502;26.014;2023-12-29T00:03:55;100757.75;;;4.52;67.14
48424;BME280;34232;42.502;26.014;2023-12-29T00:06:21;100749.56;;;4.41;67.76
48424;BME280;34232;42.502;26.014;2023-12-29T00:08:46;100756.78;;;4.36;67.73
48424;BME280;34232;42.502;26.014;2023-12-29T00:11:19;100760.56;;;4.29;69.11
48424;BME280;34232;42.502;26.014;2023-12-29T00:13:44;100762.50;;;4.23;69.86
48424;BME280;34232;42.502;26.014;2023-12-29T00:16:09;100767.38;;;4.12;70.77
48424;BME280;34232;42.502;26.014;2023-12-29T00:18:36;100770.84;;;3.93;71.72
48424;BME280;34232;42.502;26.014;2023-12-29T00:21:04;100772.88;;;3.86;71.74
48424;BME280;34232;42.502;26.014;2023-12-29T00:23:30;100779.25;;;3.79;71.86
48424;BME280;34232;42.502;26.014;2023-12-29T00:25:55;100779.00;;;3.65;73.16
48424;BME280;34232;42.502;26.014;2023-12-29T00:28:20;100770.69;;;3.57;74.55
48424;BME280;34232;42.502;26.014;2023-12-29T00:30:46;100764.94;;;3.69;75.37
48424;BME280;34232;42.502;26.014;2023-12-29T00:33:11;100765.19;;;3.83;74.57
48424;BME280;34232;42.502;26.014;2023-12-29T00:35:37;100757.13;;;3.89;72.86
48424;BME280;34232;42.502;26.014;2023-12-29T00:38:03;100760.34;;;3.94;72.73
48424;BME280;34232;42.502;26.014;2023-12-29T00:40:28;100764.16;;;3.87;72.58
48424;BME280;34232;42.502;26.014;2023-12-29T00:42:53;100765.44;;;3.97;72.14
48424;BME280;34232;42.502;26.014;2023-12-29T00:45:19;100767.72;;;4.05;72.00
48424;BME280;34232;42.502;26.014;2023-12-29T00:47:46;100765.66;;;4.11;72.52
48424;BME280;34232;42.502;26.014;2023-12-29T00:50:11;100760.53;;;4.10;70.64
48424;BME280;34232;42.502;26.014;2023-12-29T00:52:36;100758.22;;;4.04;69.45
48424;BME280;34232;42.502;26.014;2023-12-29T00:55:02;100751.75;;;3.92;69.63
48424;BME280;34232;42.502;26.014;2023-12-29T00:57:27;100752.91;;;3.86;69.70
48424;BME280;34232;42.502;26.014;2023-12-29T00:59:52;100756.59;;;3.81;70.67
48424;BME280;34232;42.502;26.014;2023-12-29T01:02:18;100748.91;;;3.78;70.51
48424;BME280;34232;42.502;26.014;2023-12-29T01:04:43;100750.59;;;3.79;70.52
48424;BME280;34232;42.502;26.014;2023-12-29T01:07:08;100746.13;;;3.82;71.60
48424;BME280;34232;42.502;26.014;2023-12-29T01:09:37;100752.03;;;3.86;71.93
48424;BME280;34232;42.502;26.014;2023-12-29T01:12:03;100748.25;;;3.93;72.61
48424;BME280;34232;42.502;26.014;2023-12-29T01:14:28;100738.69;;;3.94;72.84
48424;BME280;34232;42.502;26.014;2023-12-29T01:16:54;100738.97;;;4.06;73.90
48424;BME280;34232;42.502;26.014;2023-12-29T01:19:19;100729.72;;;4.19;75.10
48424;BME280;34232;42.502;26.014;2023-12-29T01:21:44;100736.31;;;4.27;74.92
48424;BME280;34232;42.502;26.014;2023-12-29T01:24:09;100732.81;;;4.28;75.83
48424;BME280;34232;42.502;26.014;2023-12-29T01:26:38;100731.63;;;4.35;75.84
48424;BME280;34232;42.502;26.014;2023-12-29T01:29:04;100735.06;;;4.35;76.75
48424;BME280;34232;42.502;26.014;2023-12-29T01:31:29;100733.94;;;4.41;77.39
48424;BME280;34232;42.502;26.014;2023-12-29T01:33:55;100735.22;;;4.51;77.37
48424;BME280;34232;42.502;26.014;2023-12-29T01:36:20;100730.47;;;4.59;77.52
48424;BME280;34232;42.502;26.014;2023-12-29T01:38:46;100727.28;;;4.71;77.94
48424;BME280;34232;42.502;26.014;2023-12-29T01:41:11;100720.09;;;4.76;78.60
48424;BME280;34232;42.502;26.014;2023-12-29T01:44:02;100720.50;;;4.86;78.02
48424;BME280;34232;42.502;26.014;2023-12-29T01:46:22;100713.63;;;4.66;78.79
48424;BME280;34232;42.502;26.014;2023-12-29T01:48:48;100710.97;;;4.49;79.63
48424;BME280;34232;42.502;26.014;2023-12-29T01:51:14;100711.81;;;4.68;79.12
48424;BME280;34232;42.502;26.014;2023-12-29T01:53:39;100716.84;;;4.71;76.73
48424;BME280;34232;42.502;26.014;2023-12-29T01:56:05;100712.19;;;4.78;76.86
48424;BME280;34232;42.502;26.014;2023-12-29T01:58:31;100707.13;;;4.75;74.55
48424;BME280;34232;42.502;26.014;2023-12-29T02:00:57;100702.22;;;4.69;71.95
48424;BME280;34232;42.502;26.014;2023-12-29T02:03:22;100698.00;;;4.66;70.77
48424;BME280;34232;42.502;26.014;2023-12-29T02:05:48;100689.59;;;4.60;69.78
48424;BME280;34232;42.502;26.014;2023-12-29T02:08:13;100692.41;;;4.55;69.87
48424;BME280;34232;42.502;26.014;2023-12-29T02:10:39;100690.75;;;4.54;71.94
48424;BME280;34232;42.502;26.014;2023-12-29T02:13:05;100693.63;;;4.48;73.13
48424;BME280;34232;42.502;26.014;2023-12-29T02:15:30;100694.28;;;4.15;71.32
48424;BME280;34232;42.502;26.014;2023-12-29T02:18:03;100700.22;;;3.80;73.14
48424;BME280;34232;42.502;26.014;2023-12-29T02:20:31;100700.78;;;3.68;74.55
48424;BME280;34232;42.502;26.014;2023-12-29T02:22:56;100689.50;;;3.67;75.43
48424;BME280;34232;42.502;26.014;2023-12-29T02:25:22;100688.41;;;3.73;75.60
48424;BME280;34232;42.502;26.014;2023-12-29T02:27:55;100680.38;;;3.77;74.89
48424;BME280;34232;42.502;26.014;2023-12-29T02:30:25;100682.91;;;3.79;74.01
48424;BME280;34232;42.502;26.014;2023-12-29T02:32:53;100675.09;;;3.79;74.44
48424;BME280;34232;42.502;26.014;2023-12-29T02:35:22;100666.31;;;3.81;75.74
48424;BME280;34232;42.502;26.014;2023-12-29T02:37:48;100673.78;;;3.89;76.07
48424;BME280;34232;42.502;26.014;2023-12-29T02:40:14;100678.72;;;3.95;76.36
48424;BME280;34232;42.502;26.014;2023-12-29T02:42:43;100676.81;;;3.99;76.59
48424;BME280;34232;42.502;26.014;2023-12-29T02:45:09;100676.31;;;4.09;77.29
48424;BME280;34232;42.502;26.014;2023-12-29T02:47:35;100674.28;;;4.16;77.09
48424;BME280;34232;42.502;26.014;2023-12-29T02:50:01;100671.31;;;4.23;77.33
48424;BME280;34232;42.502;26.014;2023-12-29T02:52:26;100668.44;;;4.30;77.54
48424;BME280;34232;42.502;26.014;2023-12-29T02:54:51;100672.53;;;4.35;77.89
48424;BME280;34232;42.502;26.014;2023-12-29T02:57:16;100678.28;;;4.42;77.64
48424;BME280;34232;42.502;26.014;2023-12-29T02:59:42;100672.00;;;4.46;77.94
48424;BME280;34232;42.502;26.014;2023-12-29T03:02:07;100667.44;;;4.51;77.98
48424;BME280;34232;42.502;26.014;2023-12-29T03:04:32;100663.66;;;4.20;78.55
48424;BME280;34232;42.502;26.014;2023-12-29T03:06:58;100663.22;;;3.92;80.86
48424;BME280;34232;42.502;26.014;2023-12-29T03:09:23;100659.59;;;3.76;82.19
48424;BME280;34232;42.502;26.014;2023-12-29T03:11:48;100657.69;;;3.61;83.74
48424;BME280;34232;42.502;26.014;2023-12-29T03:14:16;100649.50;;;3.49;85.07
48424;BME280;34232;42.502;26.014;2023-12-29T03:16:42;100647.00;;;3.67;84.79
48424;BME280;34232;42.502;26.014;2023-12-29T03:19:07;100650.41;;;3.88;84.02
48424;BME280;34232;42.502;26.014;2023-12-29T03:21:32;100656.47;;;4.07;83.27
48424;BME280;34232;42.502;26.014;2023-12-29T03:23:58;100658.59;;;4.17;82.39
48424;BME280;34232;42.502;26.014;2023-12-29T03:26:23;100663.22;;;4.30;81.14
48424;BME280;34232;42.502;26.014;2023-12-29T03:28:49;100666.34;;;4.38;79.84
48424;BME280;34232;42.502;26.014;2023-12-29T03:31:15;100662.31;;;4.12;75.21
48424;BME280;34232;42.502;26.014;2023-12-29T03:33:40;100661.97;;;4.01;74.31
48424;BME280;34232;42.502;26.014;2023-12-29T03:36:05;100656.31;;;3.91;74.00
48424;BME280;34232;42.502;26.014;2023-12-29T03:38:32;100648.59;;;3.90;73.32
48424;BME280;34232;42.502;26.014;2023-12-29T03:40:58;100653.34;;;3.80;73.39
48424;BME280;34232;42.502;26.014;2023-12-29T03:43:23;100652.72;;;3.75;73.38
48424;BME280;34232;42.502;26.014;2023-12-29T03:45:49;100655.47;;;3.72;73.31
48424;BME280;34232;42.502;26.014;2023-12-29T03:48:14;100652.47;;;3.61;73.03
48424;BME280;34232;42.502;26.014;2023-12-29T03:50:39;100657.81;;;3.58;73.37
48424;BME280;34232;42.502;26.014;2023-12-29T03:53:05;100659.66;;;3.56;74.37
48424;BME280;34232;42.502;26.014;2023-12-29T03:55:30;100665.84;;;3.53;75.63
48424;BME280;34232;42.502;26.014;2023-12-29T03:57:55;100660.56;;;3.55;75.80
48424;BME280;34232;42.502;26.014;2023-12-29T04:00:21;100652.59;;;3.58;75.35
48424;BME280;34232;42.502;26.014;2023-12-29T04:02:47;100658.88;;;3.54;74.85
48424;BME280;34232;42.502;26.014;2023-12-29T04:05:12;100660.75;;;3.50;75.36
48424;BME280;34232;42.502;26.014;2023-12-29T04:07:40;100655.69;;;3.47;75.51
48424;BME280;34232;42.502;26.014;2023-12-29T04:10:06;100665.97;;;3.50;76.41
48424;BME280;34232;42.502;26.014;2023-12-29T04:12:32;100666.81;;;3.50;76.42
48424;BME280;34232;42.502;26.014;2023-12-29T04:14:57;100660.56;;;3.55;76.81
48424;BME280;34232;42.502;26.014;2023-12-29T04:17:23;100659.50;;;3.59;76.05
48424;BME280;34232;42.502;26.014;2023-12-29T04:19:48;100663.75;;;3.61;75.80
48424;BME280;34232;42.502;26.014;2023-12-29T04:22:13;100657.75;;;3.59;74.68
48424;BME280;34232;42.502;26.014;2023-12-29T04:24:38;100652.31;;;3.45;73.51
48424;BME280;34232;42.502;26.014;2023-12-29T04:27:04;100651.75;;;3.38;73.19
48424;BME280;34232;42.502;26.014;2023-12-29T04:29:29;100649.00;;;3.21;72.32
48424;BME280;34232;42.502;26.014;2023-12-29T04:31:55;100652.91;;;3.11;72.97
48424;BME280;34232;42.502;26.014;2023-12-29T04:34:20;100656.06;;;2.97;73.62
48424;BME280;34232;42.502;26.014;2023-12-29T04:36:45;100649.31;;;2.93;74.11
48424;BME280;34232;42.502;26.014;2023-12-29T04:39:11;100646.78;;;2.92;74.74
48424;BME280;34232;42.502;26.014;2023-12-29T04:41:36;100649.41;;;2.92;73.71
48424;BME280;34232;42.502;26.014;2023-12-29T04:44:01;100649.47;;;2.90;74.15
48424;BME280;34232;42.502;26.014;2023-12-29T04:46:27;100642.50;;;2.91;75.04
48424;BME280;34232;42.502;26.014;2023-12-29T04:48:52;100645.09;;;2.91;75.56
48424;BME280;34232;42.502;26.014;2023-12-29T04:51:18;100637.94;;;2.96;75.29
48424;BME280;34232;42.502;26.014;2023-12-29T04:53:43;100642.03;;;3.01;75.40
48424;BME280;34232;42.502;26.014;2023-12-29T04:56:08;100655.84;;;3.03;74.68
48424;BME280;34232;42.502;26.014;2023-12-29T04:58:34;100640.94;;;3.07;74.50
48424;BME280;34232;42.502;26.014;2023-12-29T05:00:59;100649.50;;;3.09;74.41
48424;BME280;34232;42.502;26.014;2023-12-29T05:03:24;100646.53;;;2.98;73.90
48424;BME280;34232;42.502;26.014;2023-12-29T05:05:50;100646.91;;;2.89;74.38
48424;BME280;34232;42.502;26.014;2023-12-29T05:08:15;100647.75;;;2.89;74.47
48424;BME280;34232;42.502;26.014;2023-12-29T05:10:40;100646.38;;;2.80;74.34
48424;BME280;34232;42.502;26.014;2023-12-29T05:13:06;100646.63;;;2.74;73.77
48424;BME280;34232;42.502;26.014;2023-12-29T05:15:31;100652.59;;;2.76;74.47
48424;BME280;34232;42.502;26.014;2023-12-29T05:17:56;100654.28;;;2.77;73.38
48424;BME280;34232;42.502;26.014;2023-12-29T05:20:22;100656.75;;;2.80;72.79
48424;BME280;34232;42.502;26.014;2023-12-29T05:22:47;100657.50;;;2.84;71.59
48424;BME280;34232;42.502;26.014;2023-12-29T05:25:13;100663.00;;;2.76;70.35
48424;BME280;34232;42.502;26.014;2023-12-29T05:27:38;100649.34;;;2.71;70.82
48424;BME280;34232;42.502;26.014;2023-12-29T05:30:03;100653.88;;;2.66;70.79
48424;BME280;34232;42.502;26.014;2023-12-29T05:32:29;100656.59;;;2.63;69.25
48424;BME280;34232;42.502;26.014;2023-12-29T05:34:54;100657.03;;;2.53;66.68
48424;BME280;34232;42.502;26.014;2023-12-29T05:37:19;100659.41;;;2.37;67.75
48424;BME280;34232;42.502;26.014;2023-12-29T05:39:45;100657.44;;;2.20;67.17
48424;BME280;34232;42.502;26.014;2023-12-29T05:42:10;100650.97;;;2.08;67.80
48424;BME280;34232;42.502;26.014;2023-12-29T05:44:36;100653.91;;;1.99;68.20
48424;BME280;34232;42.502;26.014;2023-12-29T05:47:01;100655.72;;;1.97;69.40
48424;BME280;34232;42.502;26.014;2023-12-29T05:49:27;100655.84;;;1.94;70.78
48424;BME280;34232;42.502;26.014;2023-12-29T05:51:52;100661.16;;;1.91;72.20
48424;BME280;34232;42.502;26.014;2023-12-29T05:54:17;100669.72;;;1.93;72.91
48424;BME280;34232;42.502;26.014;2023-12-29T05:56:43;100674.06;;;1.93;73.99
48424;BME280;34232;42.502;26.014;2023-12-29T05:59:08;100682.56;;;1.96;74.26
48424;BME280;34232;42.502;26.014;2023-12-29T06:01:33;100674.66;;;1.99;74.80
48424;BME280;34232;42.502;26.014;2023-12-29T06:03:59;100671.19;;;2.00;76.46
48424;BME280;34232;42.502;26.014;2023-12-29T06:06:24;100668.41;;;2.05;77.18
48424;BME280;34232;42.502;26.014;2023-12-29T06:08:50;100673.19;;;2.16;77.28
48424;BME280;34232;42.502;26.014;2023-12-29T06:11:15;100663.25;;;2.27;77.22
48424;BME280;34232;42.502;26.014;2023-12-29T06:13:41;100663.97;;;2.30;76.14
48424;BME280;34232;42.502;26.014;2023-12-29T06:16:06;100662.16;;;2.32;76.42
48424;BME280;34232;42.502;26.014;2023-12-29T06:18:32;100662.00;;;2.37;76.24
48424;BME280;34232;42.502;26.014;2023-12-29T06:20:57;100663.25;;;2.49;76.28
48424;BME280;34232;42.502;26.014;2023-12-29T06:23:22;100663.88;;;2.55;75.72
48424;BME280;34232;42.502;26.014;2023-12-29T06:25:48;100661.22;;;2.57;75.33
48424;BME280;34232;42.502;26.014;2023-12-29T06:28:13;100659.13;;;2.65;75.86
48424;BME280;34232;42.502;26.014;2023-12-29T06:30:39;100660.53;;;2.73;75.23
48424;BME280;34232;42.502;26.014;2023-12-29T06:33:04;100665.59;;;2.76;75.13
48424;BME280;34232;42.502;26.014;2023-12-29T06:35:30;100663.13;;;2.73;76.61
48424;BME280;34232;42.502;26.014;2023-12-29T06:37:55;100659.63;;;2.74;76.34
48424;BME280;34232;42.502;26.014;2023-12-29T06:40:20;100659.38;;;2.80;75.89
48424;BME280;34232;42.502;26.014;2023-12-29T06:42:46;100653.81;;;2.90;75.59
48424;BME280;34232;42.502;26.014;2023-12-29T06:45:11;100661.34;;;2.96;75.77
48424;BME280;34232;42.502;26.014;2023-12-29T06:47:36;100665.38;;;3.03;76.23
48424;BME280;34232;42.502;26.014;2023-12-29T06:50:02;100671.75;;;3.16;76.80
48424;BME280;34232;42.502;26.014;2023-12-29T06:52:28;100665.91;;;3.31;77.87
48424;BME280;34232;42.502;26.014;2023-12-29T06:54:58;100671.19;;;3.50;78.26
48424;BME280;34232;42.502;26.014;2023-12-29T06:57:24;100668.09;;;3.61;78.24
48424;BME280;34232;42.502;26.014;2023-12-29T06:59:49;100657.69;;;3.61;78.01
48424;BME280;34232;42.502;26.014;2023-12-29T07:02:14;100654.34;;;3.38;78.16
48424;BME280;34232;42.502;26.014;2023-12-29T07:04:41;100657.38;;;3.28;79.49
48424;BME280;34232;42.502;26.014;2023-12-29T07:07:06;100657.31;;;3.49;79.89
48424;BME280;34232;42.502;26.014;2023-12-29T07:09:31;100654.16;;;3.62;79.54
48424;BME280;34232;42.502;26.014;2023-12-29T07:11:57;100666.16;;;3.66;79.45
48424;BME280;34232;42.502;26.014;2023-12-29T07:14:22;100664.69;;;3.79;79.22
48424;BME280;34232;42.502;26.014;2023-12-29T07:16:47;100673.16;;;4.03;79.01
48424;BME280;34232;42.502;26.014;2023-12-29T07:19:13;100675.78;;;4.21;78.30
48424;BME280;34232;42.502;26.014;2023-12-29T07:21:38;100678.28;;;4.42;77.54
48424;BME280;34232;42.502;26.014;2023-12-29T07:24:03;100679.09;;;4.61;76.21
48424;BME280;34232;42.502;26.014;2023-12-29T07:26:29;100672.50;;;4.54;75.24
48424;BME280;34232;42.502;26.014;2023-12-29T07:28:54;100666.34;;;4.55;75.17
48424;BME280;34232;42.502;26.014;2023-12-29T07:31:20;100671.47;;;4.75;75.00
48424;BME280;34232;42.502;26.014;2023-12-29T07:33:46;100668.25;;;4.70;75.53
48424;BME280;34232;42.502;26.014;2023-12-29T07:36:11;100671.56;;;4.55;75.77
48424;BME280;34232;42.502;26.014;2023-12-29T07:38:37;100668.81;;;4.58;76.78
48424;BME280;34232;42.502;26.014;2023-12-29T07:41:02;100680.91;;;4.78;76.63
48424;BME280;34232;42.502;26.014;2023-12-29T07:43:27;100674.41;;;4.86;75.51
48424;BME280;34232;42.502;26.014;2023-12-29T07:45:52;100673.34;;;5.08;75.24
48424;BME280;34232;42.502;26.014;2023-12-29T07:48:18;100679.31;;;4.92;74.97
48424;BME280;34232;42.502;26.014;2023-12-29T07:50:43;100676.56;;;5.13;74.45
48424;BME280;34232;42.502;26.014;2023-12-29T07:53:08;100676.19;;;5.03;74.73
48424;BME280;34232;42.502;26.014;2023-12-29T07:55:37;100683.00;;;5.06;74.51
48424;BME280;34232;42.502;26.014;2023-12-29T07:58:02;100686.38;;;5.25;74.22
48424;BME280;34232;42.502;26.014;2023-12-29T08:00:27;100685.38;;;5.27;74.20
48424;BME280;34232;42.502;26.014;2023-12-29T08:02:52;100683.31;;;5.34;73.93
48424;BME280;34232;42.502;26.014;2023-12-29T08:05:18;100678.69;;;5.56;74.77
48424;BME280;34232;42.502;26.014;2023-12-29T08:07:44;100679.13;;;5.65;74.06
48424;BME280;34232;42.502;26.014;2023-12-29T08:10:09;100677.78;;;5.90;72.95
48424;BME280;34232;42.502;26.014;2023-12-29T08:12:34;100678.25;;;6.14;72.72
48424;BME280;34232;42.502;26.014;2023-12-29T08:15:01;100680.13;;;6.28;71.16
48424;BME280;34232;42.502;26.014;2023-12-29T08:17:26;100679.97;;;6.47;71.04
48424;BME280;34232;42.502;26.014;2023-12-29T08:19:52;100683.47;;;6.77;70.38
48424;BME280;34232;42.502;26.014;2023-12-29T08:22:19;100684.75;;;7.00;68.86
48424;BME280;34232;42.502;26.014;2023-12-29T08:24:44;100679.97;;;7.22;68.29
48424;BME280;34232;42.502;26.014;2023-12-29T08:27:11;100677.88;;;7.43;66.89
48424;BME280;34232;42.502;26.014;2023-12-29T08:29:36;100677.50;;;7.49;66.25
48424;BME280;34232;42.502;26.014;2023-12-29T08:32:02;100675.28;;;7.57;66.45
48424;BME280;34232;42.502;26.014;2023-12-29T08:34:27;100669.13;;;7.87;65.68
48424;BME280;34232;42.502;26.014;2023-12-29T08:36:53;100666.88;;;8.09;65.38
48424;BME280;34232;42.502;26.014;2023-12-29T08:39:18;100674.81;;;8.22;64.70
48424;BME280;34232;42.502;26.014;2023-12-29T08:41:44;100675.41;;;8.54;63.02
48424;BME280;34232;42.502;26.014;2023-12-29T08:44:09;100675.94;;;8.73;62.31
48424;BME280;34232;42.502;26.014;2023-12-29T08:46:34;100667.63;;;8.79;62.13
48424;BME280;34232;42.502;26.014;2023-12-29T08:49:00;100688.94;;;9.01;60.91
48424;BME280;34232;42.502;26.014;2023-12-29T08:51:26;100680.34;;;9.12;60.86
48424;BME280;34232;42.502;26.014;2023-12-29T08:53:51;100679.75;;;9.21;60.84
48424;BME280;34232;42.502;26.014;2023-12-29T08:56:16;100682.81;;;8.88;60.85
48424;BME280;34232;42.502;26.014;2023-12-29T08:58:42;100672.69;;;8.82;61.84
48424;BME280;34232;42.502;26.014;2023-12-29T09:01:07;100673.25;;;8.87;62.30
48424;BME280;34232;42.502;26.014;2023-12-29T09:03:32;100669.81;;;8.99;62.58
48424;BME280;34232;42.502;26.014;2023-12-29T09:05:58;100666.72;;;9.20;61.60
48424;BME280;34232;42.502;26.014;2023-12-29T09:08:26;100664.63;;;9.25;60.39
48424;BME280;34232;42.502;26.014;2023-12-29T09:10:52;100662.53;;;9.55;60.16
48424;BME280;34232;42.502;26.014;2023-12-29T09:13:17;100664.44;;;9.66;60.26
48424;BME280;34232;42.502;26.014;2023-12-29T09:15:43;100655.38;;;9.82;59.90
48424;BME280;34232;42.502;26.014;2023-12-29T09:18:08;100658.47;;;10.13;58.44
48424;BME280;34232;42.502;26.014;2023-12-29T09:20:35;100663.00;;;10.36;57.31
48424;BME280;34232;42.502;26.014;2023-12-29T09:23:00;100658.22;;;10.41;57.02
48424;BME280;34232;42.502;26.014;2023-12-29T09:25:28;100649.50;;;10.65;56.08
48424;BME280;34232;42.502;26.014;2023-12-29T09:27:54;100646.97;;;10.63;56.67
48424;BME280;34232;42.502;26.014;2023-12-29T09:30:19;100648.78;;;10.86;55.92
48424;BME280;34232;42.502;26.014;2023-12-29T09:32:44;100645.78;;;10.91;55.60
48424;BME280;34232;42.502;26.014;2023-12-29T09:35:10;100635.56;;;11.21;55.21
48424;BME280;34232;42.502;26.014;2023-12-29T09:37:35;100625.31;;;11.41;54.65
48424;BME280;34232;42.502;26.014;2023-12-29T09:40:00;100621.25;;;11.59;53.76
48424;BME280;34232;42.502;26.014;2023-12-29T09:42:26;100617.66;;;11.60;53.24
48424;BME280;34232;42.502;26.014;2023-12-29T09:44:53;100621.25;;;11.48;53.89
48424;BME280;34232;42.502;26.014;2023-12-29T09:47:22;100618.63;;;11.48;54.25
48424;BME280;34232;42.502;26.014;2023-12-29T09:49:51;100616.00;;;11.59;53.64
48424;BME280;34232;42.502;26.014;2023-12-29T09:52:17;100615.03;;;11.71;54.07
48424;BME280;34232;42.502;26.014;2023-12-29T09:54:44;100605.72;;;11.78;53.86
48424;BME280;34232;42.502;26.014;2023-12-29T09:57:10;100606.19;;;11.95;53.45
48424;BME280;34232;42.502;26.014;2023-12-29T09:59:35;100604.03;;;12.00;53.38
48424;BME280;34232;42.502;26.014;2023-12-29T10:02:04;100604.03;;;12.00;53.46
48424;BME280;34232;42.502;26.014;2023-12-29T10:04:30;100595.88;;;11.91;53.82
48424;BME280;34232;42.502;26.014;2023-12-29T10:06:55;100589.13;;;12.10;53.59
48424;BME280;34232;42.502;26.014;2023-12-29T10:09:22;100580.41;;;12.41;52.99
48424;BME280;34232;42.502;26.014;2023-12-29T10:11:48;100579.69;;;12.39;52.77
48424;BME280;34232;42.502;26.014;2023-12-29T10:14:21;100572.19;;;12.55;52.24
48424;BME280;34232;42.502;26.014;2023-12-29T10:16:50;100569.47;;;12.78;51.67
48424;BME280;34232;42.502;26.014;2023-12-29T10:24:32;100568.38;;;13.22;51.23
48424;BME280;34232;42.502;26.014;2023-12-29T10:26:58;100561.56;;;13.50;49.67
48424;BME280;34232;42.502;26.014;2023-12-29T10:29:23;100558.75;;;13.72;49.37
48424;BME280;34232;42.502;26.014;2023-12-29T10:31:49;100559.78;;;13.90;48.98
48424;BME280;34232;42.502;26.014;2023-12-29T10:34:18;100554.53;;;14.10;48.34
48424;BME280;34232;42.502;26.014;2023-12-29T10:36:50;100552.72;;;14.29;48.04
48424;BME280;34232;42.502;26.014;2023-12-29T10:39:16;100546.50;;;14.50;47.13
48424;BME280;34232;42.502;26.014;2023-12-29T10:41:41;100543.00;;;14.68;46.77
48424;BME280;34232;42.502;26.014;2023-12-29T10:44:07;100528.91;;;14.78;46.43
48424;BME280;34232;42.502;26.014;2023-12-29T10:46:32;100526.13;;;14.79;46.33
48424;BME280;34232;42.502;26.014;2023-12-29T10:49:08;100525.00;;;14.82;46.39
48424;BME280;34232;42.502;26.014;2023-12-29T10:51:37;100522.22;;;14.93;46.70
48424;BME280;34232;42.502;26.014;2023-12-29T10:54:02;100521.50;;;14.91;45.89
48424;BME280;34232;42.502;26.014;2023-12-29T10:56:28;100522.03;;;14.94;45.31
48424;BME280;34232;42.502;26.014;2023-12-29T10:59:02;100510.47;;;14.95;45.91
48424;BME280;34232;42.502;26.014;2023-12-29T11:01:31;100505.75;;;14.80;45.39
48424;BME280;34232;42.502;26.014;2023-12-29T11:04:00;100500.16;;;14.83;45.72
48424;BME280;34232;42.502;26.014;2023-12-29T11:06:26;100506.16;;;14.85;45.08
48424;BME280;34232;42.502;26.014;2023-12-29T11:08:52;100497.97;;;14.68;45.48
48424;BME280;34232;42.502;26.014;2023-12-29T11:11:18;100493.06;;;14.83;45.75
48424;BME280;34232;42.502;26.014;2023-12-29T11:13:44;100486.19;;;15.00;45.32
48424;BME280;34232;42.502;26.014;2023-12-29T11:16:11;100486.69;;;15.13;45.24
48424;BME280;34232;42.502;26.014;2023-12-29T11:18:36;100488.06;;;15.17;45.25
48424;BME280;34232;42.502;26.014;2023-12-29T11:21:03;100479.56;;;15.23;45.24
48424;BME280;34232;42.502;26.014;2023-12-29T11:23:28;100473.75;;;15.00;44.46
48424;BME280;34232;42.502;26.014;2023-12-29T11:25:53;100461.63;;;14.98;44.42
48424;BME280;34232;42.502;26.014;2023-12-29T11:28:19;100454.50;;;14.98;44.63
48424;BME280;34232;42.502;26.014;2023-12-29T11:30:45;100457.19;;;14.89;44.89
48424;BME280;34232;42.502;26.014;2023-12-29T11:33:27;100457.69;;;15.02;44.63
48424;BME280;34232;42.502;26.014;2023-12-29T11:38:33;100457.91;;;15.18;43.38
48424;BME280;34232;42.502;26.014;2023-12-29T11:43:28;100448.28;;;15.17;43.27
48424;BME280;34232;42.502;26.014;2023-12-29T11:45:54;100454.78;;;15.32;43.11
48424;BME280;34232;42.502;26.014;2023-12-29T11:51:22;100449.13;;;15.45;42.20
48424;BME280;34232;42.502;26.014;2023-12-29T11:53:48;100448.06;;;15.38;41.59
48424;BME280;34232;42.502;26.014;2023-12-29T11:56:16;100442.97;;;15.45;41.04
48424;BME280;34232;42.502;26.014;2023-12-29T11:58:42;100440.81;;;15.30;41.41
48424;BME280;34232;42.502;26.014;2023-12-29T12:01:07;100431.34;;;15.28;41.46
48424;BME280;34232;42.502;26.014;2023-12-29T12:03:32;100437.19;;;15.31;41.41
48424;BME280;34232;42.502;26.014;2023-12-29T12:05:58;100442.47;;;15.41;41.48
48424;BME280;34232;42.502;26.014;2023-12-29T12:08:31;100440.25;;;15.36;41.44
48424;BME280;34232;42.502;26.014;2023-12-29T12:10:57;100435.94;;;15.35;41.20
48424;BME280;34232;42.502;26.014;2023-12-29T12:16:46;100433.13;;;15.37;40.85
48424;BME280;34232;42.502;26.014;2023-12-29T12:19:05;100433.84;;;15.29;41.41
48424;BME280;34232;42.502;26.014;2023-12-29T12:21:30;100430.63;;;15.35;41.28
48424;BME280;34232;42.502;26.014;2023-12-29T12:23:56;100417.41;;;15.26;41.88
48424;BME280;34232;42.502;26.014;2023-12-29T12:26:22;100419.47;;;15.04;41.51
48424;BME280;34232;42.502;26.014;2023-12-29T12:28:53;100420.53;;;15.12;41.48
48424;BME280;34232;42.502;26.014;2023-12-29T12:31:18;100424.44;;;15.17;41.19
48424;BME280;34232;42.502;26.014;2023-12-29T12:33:52;100426.38;;;15.15;41.58
48424;BME280;34232;42.502;26.014;2023-12-29T12:36:18;100426.50;;;15.23;41.83
48424;BME280;34232;42.502;26.014;2023-12-29T12:38:50;100418.63;;;15.31;41.42
48424;BME280;34232;42.502;26.014;2023-12-29T12:41:15;100415.19;;;15.21;41.70
48424;BME280;34232;42.502;26.014;2023-12-29T12:43:40;100408.88;;;14.95;42.49
48424;BME280;34232;42.502;26.014;2023-12-29T12:46:10;100409.97;;;15.02;42.77
48424;BME280;34232;42.502;26.014;2023-12-29T12:48:36;100409.84;;;14.94;42.44
48424;BME280;34232;42.502;26.014;2023-12-29T12:51:06;100415.53;;;15.09;42.56
48424;BME280;34232;42.502;26.014;2023-12-29T12:53:31;100419.75;;;15.01;42.73
48424;BME280;34232;42.502;26.014;2023-12-29T12:55:57;100419.03;;;15.09;42.77
48424;BME280;34232;42.502;26.014;2023-12-29T12:58:22;100418.03;;;15.10;42.68